sensor_id;sensor_type;location;lat;lon;timestamp;P1;durP1;ratioP1;P2;durP2;ratioP2
13799;SDS011;6971;50.028;9.258;2023-07-31T00:02:43;6.93;;;3.03;;
13799;SDS011;6971;50.028;9.258;2023-07-31T00:07:44;8.87;;;2.87;;
13799;SDS011;6971;50.028;9.258;2023-07-31T00:12:45;9.07;;;2.80;;
13799;SDS011;6971;50.028;9.258;2023-07-31T00:17:46;5.73;;;3.03;;
13799;SDS011;6971;50.028;9.258;2023-07-31T00:22:47;8.83;;;3.27;;
13799;SDS011;6971;50.028;9.258;2023-07-31T00:27:48;8.83;;;3.17;;
13799;SDS011;6971;50.028;9.258;2023-07-31T00:32:49;5.23;;;2.70;;
13799;SDS011;6971;50.028;9.258;2023-07-31T00:37:50;6.87;;;3.20;;
13799;SDS011;6971;50.028;9.258;2023-07-31T00:42:51;6.00;;;2.90;;
13799;SDS011;6971;50.028;9.258;2023-07-31T00:47:51;7.10;;;2.90;;
13799;SDS011;6971;50.028;9.258;2023-07-31T00:52:52;9.20;;;3.07;;
13799;SDS011;6971;50.028;9.258;2023-07-31T00:57:53;7.70;;;3.17;;
13799;SDS011;6971;50.028;9.258;2023-07-31T01:02:55;9.23;;;3.50;;
13799;SDS011;6971;50.028;9.258;2023-07-31T01:08:04;9.93;;;3.07;;
13799;SDS011;6971;50.028;9.258;2023-07-31T01:13:12;8.73;;;3.40;;
13799;SDS011;6971;50.028;9.258;2023-07-31T01:18:14;7.97;;;3.47;;
13799;SDS011;6971;50.028;9.258;2023-07-31T01:33:40;3.93;;;3.00;;
13799;SDS011;6971;50.028;9.258;2023-07-31T01:38:42;3.93;;;2.50;;
13799;SDS011;6971;50.028;9.258;2023-07-31T01:43:44;4.97;;;2.67;;
13799;SDS011;6971;50.028;9.258;2023-07-31T01:48:46;10.53;;;2.87;;
13799;SDS011;6971;50.028;9.258;2023-07-31T01:53:46;5.33;;;3.27;;
13799;SDS011;6971;50.028;9.258;2023-07-31T01:58:47;6.80;;;2.77;;
13799;SDS011;6971;50.028;9.258;2023-07-31T02:03:49;7.50;;;2.60;;
13799;SDS011;6971;50.028;9.258;2023-07-31T02:08:50;4.80;;;2.90;;
13799;SDS011;6971;50.028;9.258;2023-07-31T02:13:51;6.60;;;2.70;;
13799;SDS011;6971;50.028;9.258;2023-07-31T02:18:51;4.20;;;2.70;;
13799;SDS011;6971;50.028;9.258;2023-07-31T02:23:52;6.37;;;2.57;;
13799;SDS011;6971;50.028;9.258;2023-07-31T02:28:53;3.93;;;2.63;;
13799;SDS011;6971;50.028;9.258;2023-07-31T02:33:54;4.57;;;2.70;;
13799;SDS011;6971;50.028;9.258;2023-07-31T02:38:55;5.67;;;2.73;;
13799;SDS011;6971;50.028;9.258;2023-07-31T02:43:55;5.83;;;3.00;;
13799;SDS011;6971;50.028;9.258;2023-07-31T02:48:56;9.40;;;2.90;;
13799;SDS011;6971;50.028;9.258;2023-07-31T02:53:58;8.97;;;3.10;;
13799;SDS011;6971;50.028;9.258;2023-07-31T02:58:58;7.30;;;2.63;;
13799;SDS011;6971;50.028;9.258;2023-07-31T03:03:59;5.20;;;2.93;;
13799;SDS011;6971;50.028;9.258;2023-07-31T03:09:00;6.83;;;2.87;;
13799;SDS011;6971;50.028;9.258;2023-07-31T03:14:01;5.43;;;3.00;;
13799;SDS011;6971;50.028;9.258;2023-07-31T03:19:01;5.60;;;2.77;;
13799;SDS011;6971;50.028;9.258;2023-07-31T03:24:02;5.27;;;2.87;;
13799;SDS011;6971;50.028;9.258;2023-07-31T03:29:04;4.73;;;2.87;;
13799;SDS011;6971;50.028;9.258;2023-07-31T03:34:04;8.77;;;2.97;;
13799;SDS011;6971;50.028;9.258;2023-07-31T03:39:05;5.10;;;2.93;;
13799;SDS011;6971;50.028;9.258;2023-07-31T03:44:06;6.13;;;3.00;;
13799;SDS011;6971;50.028;9.258;2023-07-31T03:49:07;7.33;;;3.00;;
13799;SDS011;6971;50.028;9.258;2023-07-31T03:54:07;5.37;;;3.13;;
13799;SDS011;6971;50.028;9.258;2023-07-31T03:59:08;10.07;;;3.70;;
13799;SDS011;6971;50.028;9.258;2023-07-31T04:04:09;7.23;;;3.00;;
13799;SDS011;6971;50.028;9.258;2023-07-31T04:09:10;7.43;;;3.37;;
13799;SDS011;6971;50.028;9.258;2023-07-31T04:14:11;10.37;;;3.60;;
13799;SDS011;6971;50.028;9.258;2023-07-31T04:19:11;8.20;;;3.73;;
13799;SDS011;6971;50.028;9.258;2023-07-31T04:24:16;9.83;;;3.73;;
13799;SDS011;6971;50.028;9.258;2023-07-31T04:29:22;7.63;;;3.97;;
13799;SDS011;6971;50.028;9.258;2023-07-31T04:34:23;6.10;;;3.20;;
13799;SDS011;6971;50.028;9.258;2023-07-31T04:39:23;8.07;;;3.63;;
13799;SDS011;6971;50.028;9.258;2023-07-31T04:44:23;7.23;;;3.00;;
13799;SDS011;6971;50.028;9.258;2023-07-31T04:49:25;7.57;;;3.37;;
13799;SDS011;6971;50.028;9.258;2023-07-31T04:54:25;6.77;;;3.60;;
13799;SDS011;6971;50.028;9.258;2023-07-31T04:59:26;5.60;;;3.10;;
13799;SDS011;6971;50.028;9.258;2023-07-31T05:04:26;6.43;;;3.37;;
13799;SDS011;6971;50.028;9.258;2023-07-31T05:09:27;4.07;;;2.77;;
13799;SDS011;6971;50.028;9.258;2023-07-31T05:14:28;8.63;;;3.30;;
13799;SDS011;6971;50.028;9.258;2023-07-31T05:19:29;8.03;;;3.50;;
13799;SDS011;6971;50.028;9.258;2023-07-31T05:24:29;7.03;;;3.17;;
13799;SDS011;6971;50.028;9.258;2023-07-31T05:29:30;5.43;;;2.73;;
13799;SDS011;6971;50.028;9.258;2023-07-31T05:34:30;6.47;;;2.83;;
13799;SDS011;6971;50.028;9.258;2023-07-31T05:39:30;9.27;;;3.73;;
13799;SDS011;6971;50.028;9.258;2023-07-31T05:44:31;7.03;;;3.03;;
13799;SDS011;6971;50.028;9.258;2023-07-31T05:49:31;11.30;;;3.10;;
13799;SDS011;6971;50.028;9.258;2023-07-31T05:54:31;8.53;;;3.37;;
13799;SDS011;6971;50.028;9.258;2023-07-31T05:59:33;4.83;;;2.93;;
13799;SDS011;6971;50.028;9.258;2023-07-31T06:04:34;6.63;;;2.77;;
13799;SDS011;6971;50.028;9.258;2023-07-31T06:09:34;7.70;;;3.20;;
13799;SDS011;6971;50.028;9.258;2023-07-31T06:14:35;7.43;;;3.53;;
13799;SDS011;6971;50.028;9.258;2023-07-31T06:19:36;5.27;;;2.87;;
13799;SDS011;6971;50.028;9.258;2023-07-31T06:24:37;6.47;;;3.23;;
13799;SDS011;6971;50.028;9.258;2023-07-31T06:29:37;5.90;;;2.67;;
13799;SDS011;6971;50.028;9.258;2023-07-31T06:34:38;8.87;;;3.33;;
13799;SDS011;6971;50.028;9.258;2023-07-31T06:39:38;7.30;;;3.23;;
13799;SDS011;6971;50.028;9.258;2023-07-31T06:44:38;7.63;;;3.57;;
13799;SDS011;6971;50.028;9.258;2023-07-31T06:49:39;6.43;;;3.43;;
13799;SDS011;6971;50.028;9.258;2023-07-31T06:54:39;6.27;;;3.37;;
13799;SDS011;6971;50.028;9.258;2023-07-31T06:59:40;7.53;;;3.50;;
13799;SDS011;6971;50.028;9.258;2023-07-31T07:04:41;7.53;;;3.33;;
13799;SDS011;6971;50.028;9.258;2023-07-31T07:09:42;7.63;;;3.33;;
13799;SDS011;6971;50.028;9.258;2023-07-31T07:14:42;6.67;;;3.27;;
13799;SDS011;6971;50.028;9.258;2023-07-31T07:19:43;5.83;;;3.27;;
13799;SDS011;6971;50.028;9.258;2023-07-31T07:24:43;6.37;;;3.10;;
13799;SDS011;6971;50.028;9.258;2023-07-31T07:29:43;6.17;;;2.93;;
13799;SDS011;6971;50.028;9.258;2023-07-31T07:34:44;8.10;;;3.40;;
13799;SDS011;6971;50.028;9.258;2023-07-31T07:39:45;6.63;;;2.80;;
13799;SDS011;6971;50.028;9.258;2023-07-31T07:44:46;7.50;;;3.60;;
13799;SDS011;6971;50.028;9.258;2023-07-31T07:49:46;5.23;;;3.27;;
13799;SDS011;6971;50.028;9.258;2023-07-31T07:54:46;7.73;;;3.13;;
13799;SDS011;6971;50.028;9.258;2023-07-31T07:59:47;5.50;;;2.97;;
13799;SDS011;6971;50.028;9.258;2023-07-31T08:04:47;9.20;;;3.50;;
13799;SDS011;6971;50.028;9.258;2023-07-31T08:09:49;6.30;;;3.10;;
13799;SDS011;6971;50.028;9.258;2023-07-31T08:14:49;8.37;;;4.00;;
13799;SDS011;6971;50.028;9.258;2023-07-31T08:19:50;7.63;;;3.40;;
13799;SDS011;6971;50.028;9.258;2023-07-31T08:24:50;5.43;;;3.37;;
13799;SDS011;6971;50.028;9.258;2023-07-31T08:29:51;6.07;;;3.40;;
13799;SDS011;6971;50.028;9.258;2023-07-31T08:34:52;9.90;;;3.40;;
13799;SDS011;6971;50.028;9.258;2023-07-31T08:39:53;5.73;;;3.33;;
13799;SDS011;6971;50.028;9.258;2023-07-31T08:44:55;8.87;;;4.03;;
13799;SDS011;6971;50.028;9.258;2023-07-31T08:49:56;5.90;;;3.40;;
13799;SDS011;6971;50.028;9.258;2023-07-31T08:54:58;5.20;;;2.93;;
13799;SDS011;6971;50.028;9.258;2023-07-31T08:59:59;7.27;;;3.63;;
13799;SDS011;6971;50.028;9.258;2023-07-31T09:05:01;6.17;;;2.80;;
13799;SDS011;6971;50.028;9.258;2023-07-31T09:10:03;7.97;;;3.13;;
13799;SDS011;6971;50.028;9.258;2023-07-31T09:15:05;4.37;;;2.97;;
13799;SDS011;6971;50.028;9.258;2023-07-31T09:20:16;6.47;;;3.60;;
13799;SDS011;6971;50.028;9.258;2023-07-31T09:25:21;6.97;;;3.30;;
13799;SDS011;6971;50.028;9.258;2023-07-31T09:30:24;7.43;;;3.37;;
13799;SDS011;6971;50.028;9.258;2023-07-31T09:35:30;4.50;;;2.90;;
13799;SDS011;6971;50.028;9.258;2023-07-31T09:40:33;4.67;;;2.90;;
13799;SDS011;6971;50.028;9.258;2023-07-31T09:45:40;5.67;;;2.70;;
13799;SDS011;6971;50.028;9.258;2023-07-31T09:50:42;4.43;;;2.67;;
13799;SDS011;6971;50.028;9.258;2023-07-31T09:55:44;5.90;;;3.20;;
13799;SDS011;6971;50.028;9.258;2023-07-31T10:00:46;6.77;;;3.50;;
13799;SDS011;6971;50.028;9.258;2023-07-31T10:05:49;6.53;;;3.10;;
13799;SDS011;6971;50.028;9.258;2023-07-31T10:10:51;7.97;;;3.60;;
13799;SDS011;6971;50.028;9.258;2023-07-31T10:15:51;6.87;;;3.37;;
13799;SDS011;6971;50.028;9.258;2023-07-31T10:20:54;6.90;;;3.37;;
13799;SDS011;6971;50.028;9.258;2023-07-31T10:25:56;8.80;;;2.90;;
13799;SDS011;6971;50.028;9.258;2023-07-31T10:30:58;5.77;;;2.90;;
13799;SDS011;6971;50.028;9.258;2023-07-31T10:36:18;5.43;;;3.10;;
13799;SDS011;6971;50.028;9.258;2023-07-31T10:41:27;5.40;;;3.43;;
13799;SDS011;6971;50.028;9.258;2023-07-31T10:46:31;8.17;;;3.30;;
13799;SDS011;6971;50.028;9.258;2023-07-31T10:51:34;4.90;;;3.23;;
13799;SDS011;6971;50.028;9.258;2023-07-31T10:56:37;7.37;;;3.63;;
13799;SDS011;6971;50.028;9.258;2023-07-31T11:06:56;6.77;;;3.43;;
13799;SDS011;6971;50.028;9.258;2023-07-31T11:12:02;6.90;;;3.87;;
13799;SDS011;6971;50.028;9.258;2023-07-31T11:17:07;7.90;;;3.60;;
13799;SDS011;6971;50.028;9.258;2023-07-31T11:22:08;8.10;;;3.67;;
13799;SDS011;6971;50.028;9.258;2023-07-31T11:27:09;8.20;;;3.30;;
13799;SDS011;6971;50.028;9.258;2023-07-31T11:32:15;9.07;;;3.90;;
13799;SDS011;6971;50.028;9.258;2023-07-31T11:37:18;8.87;;;4.03;;
13799;SDS011;6971;50.028;9.258;2023-07-31T11:42:18;8.43;;;3.90;;
13799;SDS011;6971;50.028;9.258;2023-07-31T11:47:19;5.67;;;3.37;;
13799;SDS011;6971;50.028;9.258;2023-07-31T11:52:21;9.43;;;4.13;;
13799;SDS011;6971;50.028;9.258;2023-07-31T11:57:23;5.83;;;3.60;;
13799;SDS011;6971;50.028;9.258;2023-07-31T12:02:24;5.83;;;3.57;;
13799;SDS011;6971;50.028;9.258;2023-07-31T12:07:26;7.30;;;4.50;;
13799;SDS011;6971;50.028;9.258;2023-07-31T12:12:26;8.53;;;3.97;;
13799;SDS011;6971;50.028;9.258;2023-07-31T12:17:27;9.07;;;3.97;;
13799;SDS011;6971;50.028;9.258;2023-07-31T12:22:27;6.67;;;3.83;;
13799;SDS011;6971;50.028;9.258;2023-07-31T12:27:32;6.57;;;3.50;;
13799;SDS011;6971;50.028;9.258;2023-07-31T12:32:35;6.83;;;4.10;;
13799;SDS011;6971;50.028;9.258;2023-07-31T12:37:36;6.63;;;3.60;;
13799;SDS011;6971;50.028;9.258;2023-07-31T12:42:36;5.00;;;3.67;;
13799;SDS011;6971;50.028;9.258;2023-07-31T12:47:36;4.53;;;3.40;;
13799;SDS011;6971;50.028;9.258;2023-07-31T12:52:37;7.17;;;3.93;;
13799;SDS011;6971;50.028;9.258;2023-07-31T12:57:39;6.10;;;4.10;;
13799;SDS011;6971;50.028;9.258;2023-07-31T13:02:41;8.90;;;3.87;;
13799;SDS011;6971;50.028;9.258;2023-07-31T13:07:42;6.80;;;3.70;;
13799;SDS011;6971;50.028;9.258;2023-07-31T13:12:42;8.70;;;4.43;;
13799;SDS011;6971;50.028;9.258;2023-07-31T13:17:42;5.57;;;3.80;;
13799;SDS011;6971;50.028;9.258;2023-07-31T13:22:43;9.27;;;4.07;;
13799;SDS011;6971;50.028;9.258;2023-07-31T13:27:44;7.17;;;4.10;;
13799;SDS011;6971;50.028;9.258;2023-07-31T13:32:45;7.97;;;3.57;;
13799;SDS011;6971;50.028;9.258;2023-07-31T13:37:45;9.70;;;3.80;;
13799;SDS011;6971;50.028;9.258;2023-07-31T13:42:46;4.37;;;3.20;;
13799;SDS011;6971;50.028;9.258;2023-07-31T13:47:49;6.53;;;3.47;;
13799;SDS011;6971;50.028;9.258;2023-07-31T13:52:50;5.93;;;3.53;;
13799;SDS011;6971;50.028;9.258;2023-07-31T13:57:50;5.83;;;3.43;;
13799;SDS011;6971;50.028;9.258;2023-07-31T14:02:51;5.37;;;3.27;;
13799;SDS011;6971;50.028;9.258;2023-07-31T14:07:51;5.87;;;3.73;;
13799;SDS011;6971;50.028;9.258;2023-07-31T14:12:52;5.73;;;3.33;;
13799;SDS011;6971;50.028;9.258;2023-07-31T14:17:52;5.93;;;3.13;;
13799;SDS011;6971;50.028;9.258;2023-07-31T14:22:54;6.00;;;3.23;;
13799;SDS011;6971;50.028;9.258;2023-07-31T14:27:56;6.50;;;3.40;;
13799;SDS011;6971;50.028;9.258;2023-07-31T14:32:56;10.17;;;3.77;;
13799;SDS011;6971;50.028;9.258;2023-07-31T14:37:57;6.23;;;3.47;;
13799;SDS011;6971;50.028;9.258;2023-07-31T14:42:57;6.43;;;3.33;;
13799;SDS011;6971;50.028;9.258;2023-07-31T14:47:58;4.93;;;3.30;;
13799;SDS011;6971;50.028;9.258;2023-07-31T14:52:58;6.10;;;3.20;;
13799;SDS011;6971;50.028;9.258;2023-07-31T14:58:00;5.30;;;3.30;;
13799;SDS011;6971;50.028;9.258;2023-07-31T15:03:01;5.57;;;3.63;;
13799;SDS011;6971;50.028;9.258;2023-07-31T15:08:03;6.87;;;3.33;;
13799;SDS011;6971;50.028;9.258;2023-07-31T15:13:03;5.87;;;3.80;;
13799;SDS011;6971;50.028;9.258;2023-07-31T15:18:04;5.97;;;3.63;;
13799;SDS011;6971;50.028;9.258;2023-07-31T15:23:04;9.10;;;3.20;;
13799;SDS011;6971;50.028;9.258;2023-07-31T15:28:05;7.70;;;3.60;;
13799;SDS011;6971;50.028;9.258;2023-07-31T15:33:07;4.70;;;3.30;;
13799;SDS011;6971;50.028;9.258;2023-07-31T15:38:08;7.33;;;3.67;;
13799;SDS011;6971;50.028;9.258;2023-07-31T15:43:09;7.50;;;3.43;;
13799;SDS011;6971;50.028;9.258;2023-07-31T15:48:10;6.47;;;3.90;;
13799;SDS011;6971;50.028;9.258;2023-07-31T15:53:11;6.07;;;3.30;;
13799;SDS011;6971;50.028;9.258;2023-07-31T15:58:12;7.97;;;3.67;;
13799;SDS011;6971;50.028;9.258;2023-07-31T16:03:12;9.07;;;3.43;;
13799;SDS011;6971;50.028;9.258;2023-07-31T16:08:13;4.83;;;3.23;;
13799;SDS011;6971;50.028;9.258;2023-07-31T16:13:15;6.67;;;3.77;;
13799;SDS011;6971;50.028;9.258;2023-07-31T16:18:15;6.80;;;3.63;;
13799;SDS011;6971;50.028;9.258;2023-07-31T16:23:15;6.23;;;3.67;;
13799;SDS011;6971;50.028;9.258;2023-07-31T16:28:16;7.23;;;3.77;;
13799;SDS011;6971;50.028;9.258;2023-07-31T16:33:16;7.33;;;3.50;;
13799;SDS011;6971;50.028;9.258;2023-07-31T16:38:17;4.97;;;3.33;;
13799;SDS011;6971;50.028;9.258;2023-07-31T16:43:18;7.10;;;4.20;;
13799;SDS011;6971;50.028;9.258;2023-07-31T16:48:19;8.70;;;3.27;;
13799;SDS011;6971;50.028;9.258;2023-07-31T16:53:21;5.30;;;3.43;;
13799;SDS011;6971;50.028;9.258;2023-07-31T16:58:21;9.30;;;4.00;;
13799;SDS011;6971;50.028;9.258;2023-07-31T17:03:22;5.30;;;3.57;;
13799;SDS011;6971;50.028;9.258;2023-07-31T17:08:22;4.87;;;3.13;;
13799;SDS011;6971;50.028;9.258;2023-07-31T17:13:23;6.37;;;4.17;;
13799;SDS011;6971;50.028;9.258;2023-07-31T17:18:23;5.53;;;3.87;;
13799;SDS011;6971;50.028;9.258;2023-07-31T17:23:24;4.87;;;3.10;;
13799;SDS011;6971;50.028;9.258;2023-07-31T17:28:25;5.20;;;3.37;;
13799;SDS011;6971;50.028;9.258;2023-07-31T17:33:26;4.50;;;2.77;;
13799;SDS011;6971;50.028;9.258;2023-07-31T17:38:26;9.60;;;3.73;;
13799;SDS011;6971;50.028;9.258;2023-07-31T17:43:26;3.70;;;3.30;;
13799;SDS011;6971;50.028;9.258;2023-07-31T17:48:27;5.73;;;3.17;;
13799;SDS011;6971;50.028;9.258;2023-07-31T17:53:27;6.20;;;3.93;;
13799;SDS011;6971;50.028;9.258;2023-07-31T17:58:28;6.40;;;3.20;;
13799;SDS011;6971;50.028;9.258;2023-07-31T18:03:28;4.47;;;3.10;;
13799;SDS011;6971;50.028;9.258;2023-07-31T18:08:30;4.70;;;3.80;;
13799;SDS011;6971;50.028;9.258;2023-07-31T18:13:30;9.90;;;4.50;;
13799;SDS011;6971;50.028;9.258;2023-07-31T18:18:30;4.80;;;3.50;;
13799;SDS011;6971;50.028;9.258;2023-07-31T18:23:32;9.40;;;4.13;;
13799;SDS011;6971;50.028;9.258;2023-07-31T18:28:33;6.43;;;4.10;;
13799;SDS011;6971;50.028;9.258;2023-07-31T18:33:33;7.57;;;4.60;;
13799;SDS011;6971;50.028;9.258;2023-07-31T18:38:34;7.37;;;4.27;;
13799;SDS011;6971;50.028;9.258;2023-07-31T18:43:34;5.57;;;3.93;;
13799;SDS011;6971;50.028;9.258;2023-07-31T18:48:35;6.40;;;4.03;;
13799;SDS011;6971;50.028;9.258;2023-07-31T18:53:36;8.73;;;4.57;;
13799;SDS011;6971;50.028;9.258;2023-07-31T18:58:37;7.80;;;5.17;;
13799;SDS011;6971;50.028;9.258;2023-07-31T19:03:37;6.30;;;4.47;;
13799;SDS011;6971;50.028;9.258;2023-07-31T19:08:39;7.30;;;4.83;;
13799;SDS011;6971;50.028;9.258;2023-07-31T19:13:39;8.17;;;4.20;;
13799;SDS011;6971;50.028;9.258;2023-07-31T19:18:40;9.00;;;4.60;;
13799;SDS011;6971;50.028;9.258;2023-07-31T19:23:41;10.63;;;8.30;;
13799;SDS011;6971;50.028;9.258;2023-07-31T19:28:42;6.87;;;4.90;;
13799;SDS011;6971;50.028;9.258;2023-07-31T19:33:43;8.27;;;4.73;;
13799;SDS011;6971;50.028;9.258;2023-07-31T19:38:44;6.23;;;4.50;;
13799;SDS011;6971;50.028;9.258;2023-07-31T19:43:45;10.50;;;4.93;;
13799;SDS011;6971;50.028;9.258;2023-07-31T19:48:46;7.37;;;4.30;;
13799;SDS011;6971;50.028;9.258;2023-07-31T19:53:46;10.90;;;4.87;;
13799;SDS011;6971;50.028;9.258;2023-07-31T19:58:47;6.03;;;3.97;;
13799;SDS011;6971;50.028;9.258;2023-07-31T20:03:48;7.00;;;3.73;;
13799;SDS011;6971;50.028;9.258;2023-07-31T20:08:50;10.00;;;4.13;;
13799;SDS011;6971;50.028;9.258;2023-07-31T20:13:50;7.33;;;3.77;;
13799;SDS011;6971;50.028;9.258;2023-07-31T20:18:51;5.60;;;3.40;;
13799;SDS011;6971;50.028;9.258;2023-07-31T20:23:51;5.07;;;3.30;;
13799;SDS011;6971;50.028;9.258;2023-07-31T20:28:52;5.53;;;3.50;;
13799;SDS011;6971;50.028;9.258;2023-07-31T20:33:53;5.03;;;3.53;;
13799;SDS011;6971;50.028;9.258;2023-07-31T20:38:54;5.40;;;3.40;;
13799;SDS011;6971;50.028;9.258;2023-07-31T20:43:54;5.07;;;4.10;;
13799;SDS011;6971;50.028;9.258;2023-07-31T20:48:55;4.70;;;3.23;;
13799;SDS011;6971;50.028;9.258;2023-07-31T20:53:56;7.97;;;3.40;;
13799;SDS011;6971;50.028;9.258;2023-07-31T20:58:56;7.80;;;3.97;;
13799;SDS011;6971;50.028;9.258;2023-07-31T21:03:57;5.07;;;3.23;;
13799;SDS011;6971;50.028;9.258;2023-07-31T21:08:57;9.10;;;3.50;;
13799;SDS011;6971;50.028;9.258;2023-07-31T21:14:01;9.80;;;3.30;;
13799;SDS011;6971;50.028;9.258;2023-07-31T21:19:02;6.57;;;3.60;;
13799;SDS011;6971;50.028;9.258;2023-07-31T21:24:02;5.17;;;3.60;;
13799;SDS011;6971;50.028;9.258;2023-07-31T21:29:04;5.87;;;4.20;;
13799;SDS011;6971;50.028;9.258;2023-07-31T21:34:05;5.67;;;4.37;;
13799;SDS011;6971;50.028;9.258;2023-07-31T21:39:05;7.20;;;4.77;;
13799;SDS011;6971;50.028;9.258;2023-07-31T21:44:06;6.37;;;3.80;;
13799;SDS011;6971;50.028;9.258;2023-07-31T21:49:07;7.47;;;4.50;;
13799;SDS011;6971;50.028;9.258;2023-07-31T21:54:08;8.10;;;4.90;;
13799;SDS011;6971;50.028;9.258;2023-07-31T21:59:08;5.73;;;4.37;;
13799;SDS011;6971;50.028;9.258;2023-07-31T22:04:09;8.37;;;5.73;;
13799;SDS011;6971;50.028;9.258;2023-07-31T22:09:10;8.30;;;5.33;;
13799;SDS011;6971;50.028;9.258;2023-07-31T22:14:10;8.10;;;6.17;;
13799;SDS011;6971;50.028;9.258;2023-07-31T22:19:11;11.53;;;5.57;;
13799;SDS011;6971;50.028;9.258;2023-07-31T22:24:12;8.00;;;5.83;;
13799;SDS011;6971;50.028;9.258;2023-07-31T22:29:13;11.17;;;5.90;;
13799;SDS011;6971;50.028;9.258;2023-07-31T22:34:14;8.60;;;6.13;;
13799;SDS011;6971;50.028;9.258;2023-07-31T22:39:15;13.33;;;6.23;;
13799;SDS011;6971;50.028;9.258;2023-07-31T22:44:15;9.93;;;6.60;;
13799;SDS011;6971;50.028;9.258;2023-07-31T22:49:17;11.57;;;6.87;;
13799;SDS011;6971;50.028;9.258;2023-07-31T22:54:18;12.43;;;6.53;;
13799;SDS011;6971;50.028;9.258;2023-07-31T22:59:18;11.27;;;7.47;;
13799;SDS011;6971;50.028;9.258;2023-07-31T23:04:20;15.40;;;6.83;;
13799;SDS011;6971;50.028;9.258;2023-07-31T23:09:21;12.43;;;6.47;;
13799;SDS011;6971;50.028;9.258;2023-07-31T23:14:22;7.90;;;6.43;;
13799;SDS011;6971;50.028;9.258;2023-07-31T23:19:23;8.90;;;6.27;;
13799;SDS011;6971;50.028;9.258;2023-07-31T23:24:25;10.27;;;6.97;;
13799;SDS011;6971;50.028;9.258;2023-07-31T23:29:25;7.93;;;6.30;;
13799;SDS011;6971;50.028;9.258;2023-07-31T23:34:26;17.23;;;6.80;;
13799;SDS011;6971;50.028;9.258;2023-07-31T23:39:27;10.43;;;6.67;;
13799;SDS011;6971;50.028;9.258;2023-07-31T23:44:28;8.37;;;5.83;;
13799;SDS011;6971;50.028;9.258;2023-07-31T23:49:29;9.77;;;6.43;;
13799;SDS011;6971;50.028;9.258;2023-07-31T23:54:30;8.87;;;6.33;;
13799;SDS011;6971;50.028;9.258;2023-07-31T23:59:31;9.87;;;6.20;;
